Time;durP1;ratioP1;P1;durP2;ratioP2;P2;SDS_P1;SDS_P2;PMS_P1;PMS_P2;Temp;Humidity;BMP_temperature;BMP_pressure;BME280_temperature;BME280_humidity;BME280_pressure;Samples;Min_cycle;Max_cycle;Signal;HPM_P1;HPM_P2
2022/11/13 00:00:55;;;;;;;11.90;9.83;;;10.70;99.90;;;;;;5080358;28;20193;-75
2022/11/13 00:03:43;;;;;;;12.20;10.87;;;10.60;99.90;;;;;;5072496;28;20205;-75
2022/11/13 00:06:29;;;;;;;12.70;11.47;;;10.60;99.90;;;;;;5070862;28;20225;-76
2022/11/13 00:09:15;;;;;;;14.03;12.33;;;10.40;99.90;;;;;;5074327;28;20212;-75
2022/11/13 00:12:01;;;;;;;15.53;13.50;;;10.30;99.90;;;;;;5075581;28;20192;-76
2022/11/13 00:14:47;;;;;;;18.23;14.13;;;10.40;99.90;;;;;;5081089;28;20265;-75
2022/11/13 00:17:33;;;;;;;16.70;14.63;;;10.30;99.90;;;;;;5066343;28;20229;-76
2022/11/13 00:23:10;;;;;;;19.67;15.73;;;10.10;99.90;;;;;;5001303;28;20206;-76
2022/11/13 00:25:55;;;;;;;17.10;14.47;;;10.00;99.90;;;;;;5017810;28;20206;-76
2022/11/13 00:28:42;;;;;;;16.40;13.80;;;10.00;99.90;;;;;;5014351;28;20206;-76
2022/11/13 00:31:28;;;;;;;16.23;13.60;;;10.00;99.90;;;;;;5005178;28;20227;-76
2022/11/13 00:34:14;;;;;;;18.07;14.03;;;10.00;99.90;;;;;;5011998;28;20212;-76
2022/11/13 00:37:01;;;;;;;16.37;13.87;;;9.90;99.90;;;;;;5017545;28;20541;-76
2022/11/13 00:39:48;;;;;;;14.90;13.17;;;9.90;99.90;;;;;;5016046;28;20198;-76
2022/11/13 00:42:34;;;;;;;16.47;14.50;;;9.90;99.90;;;;;;5009775;28;20222;-76
2022/11/13 00:45:20;;;;;;;14.93;13.07;;;9.90;99.90;;;;;;5017052;28;20194;-75
2022/11/13 00:48:06;;;;;;;16.17;13.47;;;9.80;99.90;;;;;;5007398;28;20191;-76
2022/11/13 00:50:53;;;;;;;19.33;15.03;;;9.90;99.90;;;;;;5013751;28;20587;-76
2022/11/13 00:53:38;;;;;;;16.07;13.97;;;9.80;99.90;;;;;;5014047;28;20549;-76
2022/11/13 00:56:26;;;;;;;15.33;13.73;;;9.80;99.90;;;;;;5015629;28;20202;-76
2022/11/13 00:59:12;;;;;;;15.17;13.60;;;9.80;99.90;;;;;;5012567;28;20582;-76
2022/11/13 01:01:58;;;;;;;16.10;12.30;;;9.70;99.90;;;;;;5015890;28;20246;-76
2022/11/13 01:04:44;;;;;;;16.83;14.37;;;9.70;99.90;;;;;;5010763;28;20214;-76
2022/11/13 01:07:30;;;;;;;16.60;14.77;;;9.80;99.90;;;;;;5013168;28;20211;-76
2022/11/13 01:10:20;;;;;;;18.03;15.13;;;9.70;99.90;;;;;;5013962;28;20191;-76
2022/11/13 01:13:08;;;;;;;15.37;13.50;;;9.80;99.90;;;;;;5018394;28;20199;-76
2022/11/13 01:15:54;;;;;;;17.70;13.90;;;9.80;99.90;;;;;;5016275;28;20199;-76
2022/11/13 01:18:41;;;;;;;17.00;14.50;;;10.20;99.90;;;;;;5019419;28;20202;-76
2022/11/13 01:21:27;;;;;;;20.17;15.60;;;10.40;99.90;;;;;;5018580;28;20226;-76
2022/11/13 01:24:13;;;;;;;16.80;15.00;;;10.50;99.90;;;;;;5020627;28;20672;-76
2022/11/13 01:26:59;;;;;;;18.80;16.13;;;10.60;99.90;;;;;;5018495;28;20214;-76
2022/11/13 01:29:46;;;;;;;18.97;15.63;;;10.70;99.90;;;;;;5016550;28;20198;-76
2022/11/13 01:32:33;;;;;;;19.33;15.80;;;10.60;99.90;;;;;;5012061;28;20246;-76
2022/11/13 01:35:19;;;;;;;15.93;14.03;;;10.40;99.90;;;;;;5017934;28;20198;-76
2022/11/13 01:38:05;;;;;;;17.77;13.63;;;10.50;99.90;;;;;;5018010;28;20195;-76
2022/11/13 01:40:53;;;;;;;15.47;13.50;;;10.50;99.90;;;;;;5017384;28;20253;-76
2022/11/13 01:43:39;;;;;;;17.47;14.80;;;10.50;99.90;;;;;;5020987;28;20199;-76
2022/11/13 01:46:29;;;;;;;17.27;14.97;;;10.50;99.90;;;;;;5014182;28;20230;-77
2022/11/13 01:49:28;;;;;;;19.00;15.73;;;10.40;99.90;;;;;;5010100;28;20302;-76
2022/11/13 01:52:18;;;;;;;18.03;15.97;;;10.40;99.90;;;;;;5018146;28;20242;-76
2022/11/13 01:55:10;;;;;;;19.33;16.27;;;10.20;99.90;;;;;;5012546;28;20615;-76
2022/11/13 01:57:57;;;;;;;19.03;16.17;;;10.10;99.90;;;;;;5011287;28;20206;-76
2022/11/13 02:00:49;;;;;;;19.80;15.80;;;9.90;99.90;;;;;;5015444;28;20231;-76
2022/11/13 02:03:39;;;;;;;17.77;15.03;;;9.80;99.90;;;;;;5012563;28;20368;-76
2022/11/13 02:06:27;;;;;;;19.57;15.23;;;9.80;99.90;;;;;;5014443;28;20206;-76
2022/11/13 02:09:13;;;;;;;19.37;15.03;;;9.70;99.90;;;;;;5018243;28;20681;-76
2022/11/13 02:12:01;;;;;;;18.53;15.27;;;9.70;99.90;;;;;;5015151;28;20226;-76
2022/11/13 02:14:52;;;;;;;19.27;15.27;;;9.60;99.90;;;;;;5018882;28;20203;-76
2022/11/13 02:17:42;;;;;;;16.43;14.73;;;9.60;99.90;;;;;;5019131;28;20554;-76
2022/11/13 02:20:40;;;;;;;17.60;15.67;;;9.50;99.90;;;;;;5016570;28;20250;-76
2022/11/13 02:23:36;;;;;;;18.63;15.40;;;9.40;99.90;;;;;;5014399;28;20207;-76
2022/11/13 02:26:26;;;;;;;18.83;15.30;;;9.20;99.90;;;;;;5018962;28;20219;-76
2022/11/13 02:29:12;;;;;;;15.73;14.13;;;9.00;99.90;;;;;;5013594;28;20204;-76
2022/11/13 02:31:58;;;;;;;16.37;14.47;;;9.00;99.90;;;;;;5009077;28;20222;-76
2022/11/13 02:34:44;;;;;;;15.77;14.00;;;9.00;99.90;;;;;;5015214;28;20708;-76
2022/11/13 02:37:30;;;;;;;17.97;14.00;;;9.00;99.90;;;;;;5016104;28;20187;-76
2022/11/13 02:40:17;;;;;;;17.20;14.47;;;9.00;99.90;;;;;;5012766;28;20207;-76
2022/11/13 02:43:05;;;;;;;16.80;14.40;;;8.80;99.90;;;;;;5017410;28;20198;-76
2022/11/13 02:45:50;;;;;;;15.90;13.50;;;8.80;99.90;;;;;;5010313;28;20230;-77
2022/11/13 02:48:36;;;;;;;14.70;13.13;;;8.80;99.90;;;;;;5017420;28;20582;-76
2022/11/13 02:51:22;;;;;;;16.23;13.63;;;8.70;99.90;;;;;;5010956;28;20246;-76
2022/11/13 02:54:08;;;;;;;17.07;14.00;;;8.70;99.90;;;;;;5021947;28;20207;-76
2022/11/13 02:56:54;;;;;;;19.87;13.80;;;8.70;99.90;;;;;;5018584;28;20203;-76
2022/11/13 02:59:42;;;;;;;16.67;13.57;;;8.80;99.90;;;;;;5008684;28;20206;-75
2022/11/13 03:02:28;;;;;;;16.30;13.57;;;9.00;99.90;;;;;;5016585;28;20226;-76
2022/11/13 03:05:14;;;;;;;16.33;13.37;;;9.00;99.90;;;;;;5012497;28;20215;-76
2022/11/13 03:08:09;;;;;;;14.93;12.50;;;9.00;99.90;;;;;;5014847;28;20218;-76
2022/11/13 03:10:58;;;;;;;16.23;12.80;;;8.90;99.90;;;;;;5013761;28;20222;-76
2022/11/13 03:13:44;;;;;;;17.47;13.43;;;8.70;99.90;;;;;;5017894;28;20199;-76
2022/11/13 03:16:32;;;;;;;15.23;12.60;;;8.70;99.90;;;;;;5019589;28;20665;-76
2022/11/13 03:19:18;;;;;;;17.47;14.10;;;8.80;99.90;;;;;;5014633;28;20231;-77
2022/11/13 03:22:04;;;;;;;16.13;13.70;;;8.70;99.90;;;;;;5012825;28;20230;-75
2022/11/13 03:24:49;;;;;;;15.17;12.90;;;8.60;99.90;;;;;;5015859;28;20203;-76
2022/11/13 03:27:39;;;;;;;15.27;12.87;;;8.60;99.90;;;;;;5013932;28;20688;-76
2022/11/13 03:30:24;;;;;;;16.13;13.30;;;8.70;99.90;;;;;;5017790;28;20202;-76
2022/11/13 03:33:12;;;;;;;14.70;12.53;;;8.80;99.90;;;;;;5017317;28;20191;-76
2022/11/13 03:35:58;;;;;;;15.00;12.77;;;8.60;99.90;;;;;;5014020;28;20226;-76
2022/11/13 03:38:44;;;;;;;15.63;12.43;;;8.50;99.90;;;;;;5010526;28;21305;-76
2022/11/13 03:41:47;;;;;;;15.20;13.00;;;8.50;99.90;;;;;;5012927;28;20227;-76
2022/11/13 03:44:33;;;;;;;15.50;12.83;;;8.60;99.90;;;;;;5011116;28;20708;-76
2022/11/13 03:47:19;;;;;;;14.30;12.40;;;8.50;99.90;;;;;;5012105;28;20207;-76
2022/11/13 03:50:07;;;;;;;14.03;12.07;;;8.30;99.90;;;;;;5015420;28;20203;-76
2022/11/13 03:52:53;;;;;;;14.77;11.90;;;8.20;99.90;;;;;;5014008;28;20271;-76
2022/11/13 03:55:39;;;;;;;13.97;12.30;;;8.20;99.90;;;;;;5017332;28;20286;-76
2022/11/13 03:58:25;;;;;;;15.70;12.33;;;8.20;99.90;;;;;;5018780;28;20210;-75
2022/11/13 04:01:11;;;;;;;15.70;13.17;;;8.10;99.90;;;;;;5014294;28;20716;-76
2022/11/13 04:03:57;;;;;;;14.07;12.67;;;8.10;99.90;;;;;;5016710;28;20215;-76
2022/11/13 04:06:44;;;;;;;15.23;12.53;;;8.10;99.90;;;;;;5010241;28;20211;-76
2022/11/13 04:09:33;;;;;;;14.87;13.43;;;8.10;99.90;;;;;;5012850;28;20206;-76
2022/11/13 04:12:19;;;;;;;15.60;12.93;;;8.10;99.90;;;;;;5015880;28;20227;-76
2022/11/13 04:15:06;;;;;;;14.13;12.23;;;8.10;99.90;;;;;;5011939;28;20191;-76
2022/11/13 04:17:53;;;;;;;14.70;12.60;;;8.00;99.90;;;;;;5017251;28;20206;-76
2022/11/13 04:20:42;;;;;;;14.10;12.27;;;8.00;99.90;;;;;;5009429;28;20207;-76
2022/11/13 04:23:29;;;;;;;17.13;12.30;;;8.00;99.90;;;;;;5010057;28;20203;-76
2022/11/13 04:26:16;;;;;;;14.10;12.23;;;8.10;99.90;;;;;;5002358;28;20202;-76
2022/11/13 04:29:01;;;;;;;14.53;11.90;;;8.10;99.90;;;;;;5018664;28;20661;-76
2022/11/13 04:31:48;;;;;;;14.17;12.47;;;8.10;99.90;;;;;;5005787;28;20236;-76
2022/11/13 04:34:34;;;;;;;13.73;12.27;;;8.00;99.90;;;;;;5013635;28;20214;-76
2022/11/13 04:37:20;;;;;;;13.00;11.70;;;8.10;99.90;;;;;;5015433;28;20194;-76
2022/11/13 04:40:09;;;;;;;13.70;12.30;;;8.10;99.90;;;;;;5016723;28;20198;-76
2022/11/13 04:42:54;;;;;;;13.37;12.07;;;8.00;99.90;;;;;;5015183;28;20199;-76
2022/11/13 04:45:41;;;;;;;14.47;11.40;;;8.00;99.90;;;;;;5005932;28;20187;-76
2022/11/13 04:48:43;;;;;;;14.13;12.47;;;8.00;99.90;;;;;;5018724;28;20211;-76
2022/11/13 04:51:29;;;;;;;12.00;10.77;;;8.20;99.90;;;;;;5014944;28;20242;-76
2022/11/13 04:54:16;;;;;;;14.33;11.43;;;8.30;99.90;;;;;;5020354;28;20195;-76
2022/11/13 04:57:03;;;;;;;12.53;11.17;;;8.40;99.90;;;;;;5015958;28;20672;-76
2022/11/13 04:59:49;;;;;;;11.30;10.17;;;8.30;99.90;;;;;;5020745;28;20515;-76
2022/11/13 05:02:37;;;;;;;11.93;10.73;;;8.30;99.90;;;;;;5011698;28;20226;-76
2022/11/13 05:05:23;;;;;;;11.90;10.70;;;8.20;99.90;;;;;;5015833;28;20206;-76
2022/11/13 05:08:09;;;;;;;13.70;10.97;;;8.10;99.90;;;;;;5021364;28;20235;-76
2022/11/13 05:10:55;;;;;;;12.10;10.80;;;8.20;99.90;;;;;;5013202;28;20220;-76
2022/11/13 05:13:42;;;;;;;12.90;10.43;;;8.20;99.90;;;;;;5022689;28;20207;-76
2022/11/13 05:16:29;;;;;;;12.17;10.60;;;8.30;99.90;;;;;;5013705;28;20195;-76
2022/11/13 05:19:15;;;;;;;12.80;10.30;;;8.40;99.90;;;;;;5018248;28;20187;-76
2022/11/13 05:22:01;;;;;;;12.13;10.70;;;8.20;99.90;;;;;;5014275;28;20592;-76
2022/11/13 05:24:49;;;;;;;12.10;10.37;;;8.10;99.90;;;;;;5014594;28;20199;-76
2022/11/13 05:27:35;;;;;;;12.43;9.90;;;8.00;99.90;;;;;;5021322;28;20218;-77
2022/11/13 05:30:22;;;;;;;11.33;9.37;;;8.00;99.90;;;;;;5020266;28;20202;-76
2022/11/13 05:33:11;;;;;;;11.10;9.93;;;8.10;99.90;;;;;;5020976;28;20198;-76
2022/11/13 05:36:01;;;;;;;11.77;10.20;;;8.20;99.90;;;;;;5021110;28;20195;-76
2022/11/13 05:38:47;;;;;;;12.07;10.77;;;8.30;99.90;;;;;;5020918;28;20208;-76
2022/11/13 05:41:33;;;;;;;12.80;10.17;;;8.40;99.90;;;;;;5016284;28;20243;-76
2022/11/13 05:44:19;;;;;;;14.23;10.50;;;8.40;99.90;;;;;;5014479;28;20200;-76
2022/11/13 05:47:07;;;;;;;14.17;11.17;;;8.50;99.90;;;;;;5011827;28;20696;-76
2022/11/13 05:49:53;;;;;;;12.33;10.57;;;8.50;99.90;;;;;;5020806;28;20677;-76
2022/11/13 05:52:39;;;;;;;12.43;10.70;;;8.10;99.90;;;;;;5012140;28;20226;-76
2022/11/13 05:55:25;;;;;;;11.67;10.47;;;7.90;99.90;;;;;;5020768;28;20199;-76
2022/11/13 05:58:11;;;;;;;11.40;10.17;;;7.90;99.90;;;;;;5012572;28;20191;-76
2022/11/13 06:01:06;;;;;;;14.33;11.30;;;8.10;99.90;;;;;;5019306;28;20226;-76
2022/11/13 06:03:55;;;;;;;14.17;11.77;;;8.20;99.90;;;;;;5020366;28;20551;-76
2022/11/13 06:06:42;;;;;;;12.43;10.80;;;8.20;99.90;;;;;;5018325;28;20195;-76
2022/11/13 06:09:27;;;;;;;13.13;11.03;;;8.30;99.90;;;;;;5018993;28;20206;-76
2022/11/13 06:12:14;;;;;;;13.07;11.77;;;8.30;99.90;;;;;;5011282;28;20226;-76
2022/11/13 06:14:59;;;;;;;13.30;11.90;;;8.20;99.90;;;;;;5017161;28;20198;-76
2022/11/13 06:17:46;;;;;;;12.80;11.43;;;7.80;99.90;;;;;;5019675;28;20199;-76
2022/11/13 06:20:35;;;;;;;14.77;11.43;;;7.60;99.90;;;;;;5017463;28;20565;-76
2022/11/13 06:23:24;;;;;;;13.03;11.73;;;7.40;99.90;;;;;;5016115;28;20195;-76
2022/11/13 06:26:12;;;;;;;14.63;12.03;;;7.40;99.90;;;;;;5018852;28;20202;-76
2022/11/13 06:29:06;;;;;;;12.43;11.23;;;7.30;99.90;;;;;;5018389;28;20222;-75
2022/11/13 06:31:52;;;;;;;14.27;12.70;;;7.30;99.90;;;;;;5034590;22;20241;-77
2022/11/13 06:34:38;;;;;;;12.53;11.30;;;7.50;99.90;;;;;;5041695;28;20198;-77
2022/11/13 06:37:31;;;;;;;13.73;11.57;;;7.90;99.90;;;;;;5034484;28;20663;-77
2022/11/13 06:40:17;;;;;;;11.73;10.57;;;8.00;99.90;;;;;;5030784;28;20221;-77
2022/11/13 06:43:03;;;;;;;11.97;10.77;;;7.60;99.90;;;;;;5032338;28;20718;-77
2022/11/13 06:45:49;;;;;;;11.93;10.70;;;7.30;99.90;;;;;;5034653;28;20210;-77
2022/11/13 06:48:35;;;;;;;14.43;11.67;;;7.20;99.90;;;;;;5038535;28;20214;-77
2022/11/13 06:51:29;;;;;;;11.83;10.63;;;7.20;99.90;;;;;;5034465;28;20230;-78
2022/11/13 06:54:16;;;;;;;12.93;11.60;;;7.20;99.90;;;;;;5039601;28;20199;-78
2022/11/13 06:57:02;;;;;;;11.20;10.10;;;7.20;99.90;;;;;;5033614;28;20202;-78
2022/11/13 06:59:48;;;;;;;11.43;10.20;;;7.10;99.90;;;;;;5037545;28;20190;-78
2022/11/13 07:02:34;;;;;;;13.23;11.20;;;6.90;99.90;;;;;;5029667;28;20218;-77
2022/11/13 07:05:20;;;;;;;12.20;11.00;;;6.90;99.90;;;;;;5035761;28;20198;-77
2022/11/13 07:08:09;;;;;;;13.33;10.93;;;7.00;99.90;;;;;;5039661;28;20218;-77
2022/11/13 07:11:15;;;;;;;14.07;10.60;;;6.90;99.90;;;;;;5037290;28;20198;-77
2022/11/13 07:14:01;;;;;;;11.47;10.23;;;6.90;99.90;;;;;;5033584;28;20197;-77
2022/11/13 07:16:47;;;;;;;11.93;10.73;;;7.00;99.90;;;;;;5035935;28;20206;-77
2022/11/13 07:19:33;;;;;;;11.67;10.47;;;6.80;99.90;;;;;;5039022;28;20554;-77
2022/11/13 07:22:19;;;;;;;12.00;10.10;;;6.90;99.90;;;;;;5034743;28;20222;-77
2022/11/13 07:25:06;;;;;;;12.77;10.80;;;7.00;99.90;;;;;;5037601;28;20217;-77
2022/11/13 07:27:54;;;;;;;12.60;10.53;;;7.20;99.90;;;;;;5032653;28;20225;-77
2022/11/13 07:30:39;;;;;;;11.97;10.23;;;7.20;99.90;;;;;;5034137;28;20198;-77
2022/11/13 07:33:48;;;;;;;11.90;9.60;;;7.10;99.90;;;;;;5028319;28;20233;-77
2022/11/13 07:36:34;;;;;;;11.07;9.97;;;7.10;99.90;;;;;;5033785;28;20202;-77
2022/11/13 07:39:20;;;;;;;11.43;9.40;;;7.10;99.90;;;;;;5033311;28;20198;-77
2022/11/13 07:42:06;;;;;;;12.17;9.87;;;7.20;99.90;;;;;;5029955;28;20238;-77
2022/11/13 07:44:53;;;;;;;11.27;9.97;;;7.30;99.90;;;;;;5033845;28;20218;-77
2022/11/13 07:47:39;;;;;;;10.93;9.80;;;7.40;99.90;;;;;;5035763;28;20929;-77
2022/11/13 07:50:26;;;;;;;11.43;10.23;;;7.60;99.90;;;;;;5029804;28;20552;-76
2022/11/13 07:53:11;;;;;;;13.40;9.43;;;7.50;99.90;;;;;;5024891;28;20234;-77
2022/11/13 07:56:17;;;;;;;10.37;9.27;;;7.60;99.90;;;;;;5121404;27;20539;-76
2022/11/13 07:59:03;;;;;;;10.67;9.40;;;7.90;99.90;;;;;;5129933;27;20180;-76
2022/11/13 08:01:49;;;;;;;9.57;8.50;;;8.00;99.90;;;;;;5130144;27;20211;-77
2022/11/13 08:04:35;;;;;;;10.47;9.10;;;8.20;99.90;;;;;;5131701;27;20184;-76
2022/11/13 08:07:21;;;;;;;10.73;9.63;;;8.30;99.90;;;;;;5124434;27;20645;-77
2022/11/13 08:10:08;;;;;;;11.33;9.97;;;8.60;99.90;;;;;;5120895;27;20533;-76
2022/11/13 08:13:00;;;;;;;11.97;10.07;;;8.70;99.90;;;;;;5126651;27;20220;-76
2022/11/13 08:15:46;;;;;;;10.47;9.47;;;8.50;99.90;;;;;;5126010;27;20211;-76
2022/11/13 08:18:33;;;;;;;11.77;10.13;;;8.50;99.90;;;;;;5131900;27;20184;-77
2022/11/13 08:21:20;;;;;;;10.83;9.50;;;8.50;99.90;;;;;;5124113;27;20199;-76
2022/11/13 08:24:06;;;;;;;12.13;9.43;;;8.50;99.90;;;;;;5122934;27;20849;-76
2022/11/13 08:26:52;;;;;;;11.50;9.53;;;8.70;99.90;;;;;;5125657;27;20193;-77
2022/11/13 08:29:40;;;;;;;10.67;9.23;;;8.80;99.90;;;;;;5112865;28;20188;-78
2022/11/13 08:32:26;;;;;;;12.33;9.93;;;8.90;99.90;;;;;;5118891;27;20216;-79
2022/11/13 08:35:12;;;;;;;10.93;9.27;;;9.10;99.90;;;;;;5119406;27;20208;-79
2022/11/13 08:38:02;;;;;;;10.17;9.10;;;9.20;99.90;;;;;;5122640;27;20195;-77
2022/11/13 08:40:48;;;;;;;11.83;9.73;;;9.50;99.90;;;;;;5123128;27;20189;-77
2022/11/13 08:43:57;;;;;;;11.57;10.37;;;9.70;99.90;;;;;;5114624;28;20193;-77
2022/11/13 08:46:44;;;;;;;12.23;10.93;;;9.90;99.90;;;;;;5128338;27;20669;-77
2022/11/13 08:49:30;;;;;;;12.20;10.67;;;10.00;99.90;;;;;;5124250;27;20689;-76
2022/11/13 08:52:47;;;;;;;11.07;9.87;;;10.00;99.90;;;;;;5116133;27;20589;-76
2022/11/13 08:55:34;;;;;;;12.67;10.73;;;10.20;99.90;;;;;;5118788;28;20223;-76
2022/11/13 08:58:20;;;;;;;12.60;11.30;;;10.30;99.90;;;;;;5116702;28;20211;-77
2022/11/13 09:01:11;;;;;;;13.30;11.63;;;10.30;99.90;;;;;;5114165;28;20555;-77
2022/11/13 09:03:58;;;;;;;11.63;9.93;;;10.40;99.90;;;;;;5127801;27;20191;-78
2022/11/13 09:06:44;;;;;;;11.63;10.17;;;10.60;99.90;;;;;;5108987;27;20200;-77
2022/11/13 09:09:30;;;;;;;12.33;9.67;;;10.60;99.90;;;;;;5106445;28;20193;-77
2022/11/13 09:12:29;;;;;;;12.07;10.43;;;10.70;99.90;;;;;;5110724;28;20227;-77
2022/11/13 09:15:15;;;;;;;12.83;10.90;;;10.80;99.90;;;;;;5116291;28;20580;-77
2022/11/13 09:18:02;;;;;;;11.23;10.10;;;11.00;99.90;;;;;;5102603;28;20219;-77
2022/11/13 09:20:49;;;;;;;11.10;9.80;;;11.10;99.90;;;;;;5111935;28;20275;-77
2022/11/13 09:23:35;;;;;;;11.43;10.23;;;11.10;99.90;;;;;;5111785;28;20195;-77
2022/11/13 09:26:21;;;;;;;11.20;10.20;;;11.30;99.90;;;;;;5120609;28;20273;-77
2022/11/13 09:29:09;;;;;;;13.43;11.00;;;11.30;99.90;;;;;;5111391;28;20195;-77
2022/11/13 09:31:55;;;;;;;10.17;9.17;;;11.40;99.90;;;;;;5118406;28;20227;-77
2022/11/13 09:34:40;;;;;;;10.93;9.83;;;11.50;99.70;;;;;;5114216;28;20195;-77
2022/11/13 09:37:31;;;;;;;12.93;10.15;;;11.50;99.40;;;;;;5113720;28;20191;-77
2022/11/13 09:40:28;;;;;;;10.30;9.30;;;11.60;99.10;;;;;;5106949;28;20212;-79
2022/11/13 09:43:26;;;;;;;11.37;10.27;;;11.70;98.60;;;;;;5113223;28;20225;-79
2022/11/13 09:46:20;;;;;;;10.70;9.57;;;11.80;98.30;;;;;;5113357;28;20188;-79
2022/11/13 09:49:15;;;;;;;13.80;11.40;;;11.90;97.80;;;;;;5123685;28;20207;-79
2022/11/13 09:52:09;;;;;;;13.80;11.02;;;12.00;97.60;;;;;;5117917;28;20227;-79
2022/11/13 09:55:12;;;;;;;11.40;10.27;;;12.20;97.20;;;;;;5114005;27;20719;-79
2022/11/13 09:58:05;;;;;;;11.45;9.65;;;12.30;96.80;;;;;;5113256;28;20211;-79
2022/11/13 10:00:51;;;;;;;11.55;9.95;;;12.40;96.10;;;;;;5112603;28;20195;-79
2022/11/13 10:03:43;;;;;;;11.38;10.20;;;12.40;96.10;;;;;;5114333;28;20561;-77
2022/11/13 10:06:39;;;;;;;15.63;10.85;;;12.50;96.00;;;;;;5113893;28;20195;-77
2022/11/13 10:09:46;;;;;;;11.20;9.43;;;12.60;95.80;;;;;;5099687;28;20212;-77
2022/11/13 10:12:34;;;;;;;9.95;9.05;;;12.90;95.70;;;;;;5105528;28;20223;-77
2022/11/13 10:15:23;;;;;;;9.95;8.95;;;13.20;95.00;;;;;;5114396;28;20204;-78
2022/11/13 10:18:15;;;;;;;8.85;7.95;;;13.30;94.80;;;;;;5112078;28;20188;-77
2022/11/13 10:21:10;;;;;;;9.50;8.52;;;13.40;94.90;;;;;;5104338;28;20197;-77
2022/11/13 10:23:57;;;;;;;9.82;8.40;;;13.80;94.30;;;;;;5105714;28;20188;-77
2022/11/13 10:26:43;;;;;;;10.18;8.50;;;14.20;93.60;;;;;;5100814;28;20185;-77
2022/11/13 10:29:48;;;;;;;9.90;8.90;;;14.60;93.00;;;;;;5108839;28;20195;-77
2022/11/13 10:32:33;;;;;;;11.25;8.20;;;15.00;92.00;;;;;;5100924;28;20220;-77
2022/11/13 10:35:32;;;;;;;9.60;8.60;;;15.40;91.30;;;;;;5104256;28;20211;-77
2022/11/13 10:38:41;;;;;;;9.32;8.02;;;15.90;90.60;;;;;;5109731;28;20350;-77
2022/11/13 10:41:27;;;;;;;10.18;8.27;;;16.70;87.60;;;;;;5103117;28;20609;-77
2022/11/13 10:44:29;;;;;;;8.30;7.45;;;16.90;85.40;;;;;;5098478;28;20218;-77
2022/11/13 10:47:18;;;;;;;8.73;7.90;;;17.60;82.90;;;;;;5112319;28;20206;-77
2022/11/13 10:50:11;;;;;;;8.25;7.40;;;17.90;79.30;;;;;;5111685;28;20207;-77
2022/11/13 10:52:58;;;;;;;7.80;7.05;;;18.00;77.50;;;;;;5103568;28;20219;-77
2022/11/13 10:55:51;;;;;;;8.38;7.45;;;18.70;75.40;;;;;;5107539;27;20218;-77
2022/11/13 10:58:37;;;;;;;7.45;6.75;;;18.90;72.90;;;;;;5105113;28;20205;-78
2022/11/13 11:01:23;;;;;;;8.45;7.53;;;19.10;71.40;;;;;;5103598;28;20203;-78
2022/11/13 11:04:19;;;;;;;7.45;6.75;;;19.40;69.70;;;;;;5105478;28;20207;-79
2022/11/13 11:07:24;;;;;;;7.57;6.88;;;19.80;67.30;;;;;;5100690;28;20196;-78
2022/11/13 11:10:22;;;;;;;7.20;6.50;;;19.90;64.00;;;;;;5101793;28;20192;-78
2022/11/13 11:13:12;;;;;;;5.95;5.35;;;19.90;62.40;;;;;;5096930;28;20221;-78
2022/11/13 11:16:01;;;;;;;6.32;5.68;;;20.40;60.10;;;;;;5099536;28;20211;-78
2022/11/13 11:18:54;;;;;;;6.70;5.97;;;20.50;58.80;;;;;;5108106;28;20204;-79
2022/11/13 11:21:42;;;;;;;6.38;5.78;;;20.90;58.80;;;;;;5104303;28;20724;-79
2022/11/13 11:24:35;;;;;;;6.50;5.70;;;21.20;58.10;;;;;;5105012;28;20203;-79
2022/11/13 11:27:28;;;;;;;6.18;5.57;;;21.00;56.80;;;;;;5107094;28;20185;-80
2022/11/13 11:30:26;;;;;;;7.15;6.45;;;21.40;56.10;;;;;;5105902;28;20630;-79
2022/11/13 11:33:18;;;;;;;5.85;5.25;;;21.80;54.60;;;;;;5096836;28;20705;-79
2022/11/13 11:36:14;;;;;;;5.70;5.20;;;22.20;53.20;;;;;;5098117;28;20563;-78
2022/11/13 11:39:25;;;;;;;5.70;5.10;;;22.30;51.90;;;;;;5098457;28;20203;-78
2022/11/13 11:42:34;;;;;;;6.25;4.70;;;22.60;51.50;;;;;;5102815;28;20235;-79
2022/11/13 11:45:25;;;;;;;5.10;4.60;;;22.70;50.80;;;;;;5104226;28;20196;-78
2022/11/13 11:48:13;;;;;;;5.78;5.18;;;22.90;49.60;;;;;;5109538;28;20192;-78
2022/11/13 11:51:08;;;;;;;5.18;4.72;;;23.40;49.10;;;;;;5115045;28;20195;-78
2022/11/13 11:54:06;;;;;;;6.72;5.35;;;23.30;48.30;;;;;;5116802;28;20203;-78
2022/11/13 11:56:55;;;;;;;6.70;6.05;;;23.50;48.00;;;;;;5100106;28;20236;-78
2022/11/13 11:59:59;;;;;;;6.22;5.70;;;23.70;48.00;;;;;;5110808;28;20200;-78
2022/11/13 12:03:35;;;;;;;8.32;7.05;;;23.70;47.70;;;;;;5115357;28;20216;-79
2022/11/13 12:06:35;;;;;;;7.93;7.22;;;23.80;48.00;;;;;;5111826;28;20208;-78
2022/11/13 12:09:27;;;;;;;8.40;7.50;;;24.10;48.40;;;;;;5102938;28;20203;-78
2022/11/13 12:12:22;;;;;;;7.90;7.20;;;24.30;47.90;;;;;;5107756;28;20218;-79
2022/11/13 12:15:15;;;;;;;8.13;7.43;;;24.10;47.40;;;;;;5108469;28;20206;-79
2022/11/13 12:18:15;;;;;;;7.13;6.53;;;24.50;47.50;;;;;;5108577;28;20676;-78
2022/11/13 12:21:21;;;;;;;7.88;7.07;;;24.50;46.90;;;;;;5112792;28;20199;-79
2022/11/13 12:24:25;;;;;;;8.80;8.00;;;24.70;46.30;;;;;;5108641;28;20210;-79
2022/11/13 12:27:22;;;;;;;8.48;7.47;;;24.80;46.30;;;;;;5109317;28;20192;-79
2022/11/13 12:30:13;;;;;;;7.88;7.00;;;25.30;45.40;;;;;;5115611;28;20684;-78
2022/11/13 12:33:10;;;;;;;8.57;7.65;;;24.80;46.00;;;;;;5124463;22;20220;-82
2022/11/13 12:35:57;;;;;;;8.07;7.30;;;25.10;45.30;;;;;;5097705;28;20185;-82
2022/11/13 12:38:51;;;;;;;8.20;7.50;;;25.50;44.50;;;;;;5102387;28;20184;-81
2022/11/13 12:41:58;;;;;;;8.10;7.32;;;24.90;44.60;;;;;;5099083;28;20196;-82
2022/11/13 12:44:53;;;;;;;8.38;7.53;;;25.30;44.30;;;;;;5090316;28;20196;-84
2022/11/13 12:47:39;;;;;;;9.18;8.38;;;25.80;43.90;;;;;;5093128;28;20197;-85
2022/11/13 12:50:29;;;;;;;8.65;7.85;;;25.40;44.50;;;;;;5099884;28;20207;-83
2022/11/13 12:53:25;;;;;;;9.27;7.85;;;25.70;43.80;;;;;;5093529;28;20231;-84
2022/11/13 12:56:16;;;;;;;8.30;7.50;;;26.20;42.70;;;;;;5096412;28;20188;-84
2022/11/13 12:59:29;;;;;;;8.70;7.85;;;26.20;42.10;;;;;;5090304;28;20669;-83
2022/11/13 13:02:45;;;;;;;8.13;7.43;;;26.20;42.10;;;;;;5087034;28;20216;-83
2022/11/13 13:05:57;;;;;;;10.55;7.55;;;26.30;42.40;;;;;;5101842;28;20185;-83
2022/11/13 13:09:00;;;;;;;8.02;7.32;;;26.90;41.00;;;;;;5096884;28;20205;-82
2022/11/13 13:11:56;;;;;;;8.35;7.55;;;26.80;40.40;;;;;;5089344;28;20201;-82
2022/11/13 13:15:16;;;;;;;7.85;7.15;;;27.00;40.30;;;;;;5103302;28;20543;-83
2022/11/13 13:18:06;;;;;;;7.63;6.95;;;27.30;40.20;;;;;;5094330;28;20204;-83
2022/11/13 13:21:03;;;;;;;8.23;7.38;;;27.20;39.50;;;;;;5098159;28;20185;-85
2022/11/13 13:23:53;;;;;;;7.43;6.75;;;27.30;39.90;;;;;;5090908;28;20232;-84
2022/11/13 13:26:52;;;;;;;8.85;7.93;;;26.80;39.80;;;;;;5100194;28;20208;-83
2022/11/13 13:29:40;;;;;;;7.10;6.50;;;26.30;39.90;;;;;;5098935;28;20201;-84
2022/11/13 13:32:36;;;;;;;7.60;6.90;;;26.80;39.60;;;;;;5094879;28;20234;-83
2022/11/13 13:35:27;;;;;;;7.38;6.68;;;26.70;40.00;;;;;;5097114;28;20192;-84
2022/11/13 13:38:20;;;;;;;8.63;7.78;;;27.50;39.10;;;;;;5087015;28;20195;-84
2022/11/13 13:41:17;;;;;;;7.97;7.28;;;27.30;38.70;;;;;;5090972;28;20210;-84
2022/11/13 13:44:24;;;;;;;8.05;7.25;;;27.00;39.00;;;;;;5095904;28;20205;-84
2022/11/13 13:47:20;;;;;;;9.02;8.13;;;26.70;40.20;;;;;;5096498;28;20208;-84
2022/11/13 13:50:09;;;;;;;8.10;7.40;;;26.80;40.30;;;;;;5091463;28;20201;-84
2022/11/13 13:53:00;;;;;;;8.50;7.70;;;26.80;40.30;;;;;;5087951;28;20813;-84
2022/11/13 13:55:49;;;;;;;7.47;6.80;;;27.20;39.80;;;;;;5094807;28;20192;-85
2022/11/13 13:58:37;;;;;;;7.13;6.50;;;26.80;40.20;;;;;;5100989;28;20188;-84
2022/11/13 14:01:28;;;;;;;7.28;6.57;;;26.50;41.20;;;;;;5095543;28;20194;-84
2022/11/13 14:04:19;;;;;;;6.50;5.93;;;26.30;41.40;;;;;;5100491;28;20216;-84
2022/11/13 14:07:19;;;;;;;6.80;6.22;;;26.40;41.20;;;;;;5094442;28;20216;-84
2022/11/13 14:10:14;;;;;;;7.13;6.53;;;26.10;41.60;;;;;;5090997;28;20206;-84
2022/11/13 14:13:00;;;;;;;7.53;6.10;;;26.30;41.70;;;;;;5090286;28;20225;-84
2022/11/13 14:15:46;;;;;;;6.55;5.95;;;26.20;41.80;;;;;;5088311;28;20565;-84
2022/11/13 14:18:35;;;;;;;5.88;5.38;;;26.20;41.60;;;;;;5096149;28;20196;-84
2022/11/13 14:21:27;;;;;;;6.20;5.70;;;26.00;41.70;;;;;;5095322;28;20679;-85
2022/11/13 14:24:21;;;;;;;6.43;5.90;;;25.90;42.00;;;;;;5088641;28;20201;-85
2022/11/13 14:27:19;;;;;;;6.18;5.68;;;26.30;41.70;;;;;;5099452;28;20212;-84
2022/11/13 14:30:09;;;;;;;6.57;5.97;;;25.80;42.00;;;;;;5099033;28;20562;-87
2022/11/13 14:32:57;;;;;;;6.70;5.80;;;25.80;42.10;;;;;;5094533;28;20241;-84
2022/11/13 14:35:51;;;;;;;5.97;5.47;;;25.90;41.90;;;;;;5093568;28;20200;-84
2022/11/13 14:38:44;;;;;;;5.30;4.90;;;25.80;41.90;;;;;;5097540;28;20197;-83